sensor_id;sensor_type;location;lat;lon;timestamp;temperature;humidity
1413;DHT22;701;52.526;13.408;2023-02-03T00:00:35;5.20;28.80
1413;DHT22;701;52.526;13.408;2023-02-03T00:03:01;5.20;28.80
1413;DHT22;701;52.526;13.408;2023-02-03T00:05:27;5.20;28.80
1413;DHT22;701;52.526;13.408;2023-02-03T00:07:53;5.20;28.80
1413;DHT22;701;52.526;13.408;2023-02-03T00:10:19;5.20;28.80
1413;DHT22;701;52.526;13.408;2023-02-03T00:12:48;5.20;28.80
1413;DHT22;701;52.526;13.408;2023-02-03T00:15:14;5.20;28.80
1413;DHT22;701;52.526;13.408;2023-02-03T00:17:39;5.30;28.80
1413;DHT22;701;52.526;13.408;2023-02-03T00:20:05;5.30;28.80
1413;DHT22;701;52.526;13.408;2023-02-03T00:22:31;5.30;28.80
1413;DHT22;701;52.526;13.408;2023-02-03T00:24:57;5.30;28.80
1413;DHT22;701;52.526;13.408;2023-02-03T00:27:23;5.30;29.00
1413;DHT22;701;52.526;13.408;2023-02-03T00:29:48;5.30;29.50
1413;DHT22;701;52.526;13.408;2023-02-03T00:32:14;5.30;29.90
1413;DHT22;701;52.526;13.408;2023-02-03T00:34:40;5.20;30.20
1413;DHT22;701;52.526;13.408;2023-02-03T00:37:06;5.20;30.60
1413;DHT22;701;52.526;13.408;2023-02-03T00:39:31;5.20;31.10
1413;DHT22;701;52.526;13.408;2023-02-03T00:41:57;5.10;31.70
1413;DHT22;701;52.526;13.408;2023-02-03T00:44:23;5.10;32.10
1413;DHT22;701;52.526;13.408;2023-02-03T00:46:50;5.10;32.60
1413;DHT22;701;52.526;13.408;2023-02-03T00:49:15;5.10;33.00
1413;DHT22;701;52.526;13.408;2023-02-03T00:51:41;5.10;33.60
1413;DHT22;701;52.526;13.408;2023-02-03T00:54:07;5.00;34.00
1413;DHT22;701;52.526;13.408;2023-02-03T00:56:32;5.00;34.60
1413;DHT22;701;52.526;13.408;2023-02-03T00:58:58;5.00;34.90
1413;DHT22;701;52.526;13.408;2023-02-03T01:01:24;4.90;34.70
1413;DHT22;701;52.526;13.408;2023-02-03T01:03:50;4.90;35.10
1413;DHT22;701;52.526;13.408;2023-02-03T01:06:18;4.90;35.50
1413;DHT22;701;52.526;13.408;2023-02-03T01:08:46;4.90;36.40
1413;DHT22;701;52.526;13.408;2023-02-03T01:11:18;4.90;36.90
1413;DHT22;701;52.526;13.408;2023-02-03T01:13:44;4.90;36.90
1413;DHT22;701;52.526;13.408;2023-02-03T01:16:12;4.90;36.90
1413;DHT22;701;52.526;13.408;2023-02-03T01:18:38;4.90;36.90
1413;DHT22;701;52.526;13.408;2023-02-03T01:21:13;4.90;38.10
1413;DHT22;701;52.526;13.408;2023-02-03T01:23:39;4.90;37.80
1413;DHT22;701;52.526;13.408;2023-02-03T01:26:07;4.90;37.90
1413;DHT22;701;52.526;13.408;2023-02-03T01:28:34;4.90;37.90
1413;DHT22;701;52.526;13.408;2023-02-03T01:31:16;4.90;38.20
1413;DHT22;701;52.526;13.408;2023-02-03T01:33:42;4.90;38.50
1413;DHT22;701;52.526;13.408;2023-02-03T01:36:11;4.90;38.40
1413;DHT22;701;52.526;13.408;2023-02-03T01:38:38;4.90;38.80
1413;DHT22;701;52.526;13.408;2023-02-03T01:41:06;4.90;38.90
1413;DHT22;701;52.526;13.408;2023-02-03T01:43:38;4.90;39.00
1413;DHT22;701;52.526;13.408;2023-02-03T01:49:01;4.90;39.60
1413;DHT22;701;52.526;13.408;2023-02-03T01:51:29;4.90;39.30
1413;DHT22;701;52.526;13.408;2023-02-03T01:53:55;4.80;39.40
1413;DHT22;701;52.526;13.408;2023-02-03T01:56:23;4.80;39.50
1413;DHT22;701;52.526;13.408;2023-02-03T01:58:50;4.80;39.40
1413;DHT22;701;52.526;13.408;2023-02-03T02:01:16;4.80;39.50
1413;DHT22;701;52.526;13.408;2023-02-03T02:03:47;4.80;39.80
1413;DHT22;701;52.526;13.408;2023-02-03T02:06:14;4.70;39.70
1413;DHT22;701;52.526;13.408;2023-02-03T02:08:41;4.80;39.90
1413;DHT22;701;52.526;13.408;2023-02-03T02:11:08;4.80;40.20
1413;DHT22;701;52.526;13.408;2023-02-03T02:13:35;4.70;39.90
1413;DHT22;701;52.526;13.408;2023-02-03T02:35:47;4.80;40.70
1413;DHT22;701;52.526;13.408;2023-02-03T02:41:22;4.80;40.40
1413;DHT22;701;52.526;13.408;2023-02-03T02:44:13;4.80;40.10
1413;DHT22;701;52.526;13.408;2023-02-03T02:46:47;4.80;40.50
1413;DHT22;701;52.526;13.408;2023-02-03T02:49:26;4.80;40.30
1413;DHT22;701;52.526;13.408;2023-02-03T02:51:56;4.80;40.10
1413;DHT22;701;52.526;13.408;2023-02-03T02:54:25;4.80;39.80
1413;DHT22;701;52.526;13.408;2023-02-03T02:56:58;4.70;39.90
1413;DHT22;701;52.526;13.408;2023-02-03T02:59:26;4.70;39.90
1413;DHT22;701;52.526;13.408;2023-02-03T03:01:52;4.60;39.90
1413;DHT22;701;52.526;13.408;2023-02-03T03:04:21;4.60;40.20
1413;DHT22;701;52.526;13.408;2023-02-03T03:07:00;4.60;40.30
1413;DHT22;701;52.526;13.408;2023-02-03T03:09:37;4.60;40.60
1413;DHT22;701;52.526;13.408;2023-02-03T03:12:24;4.60;40.60
1413;DHT22;701;52.526;13.408;2023-02-03T03:14:55;4.60;40.90
1413;DHT22;701;52.526;13.408;2023-02-03T03:17:31;4.60;40.90
1413;DHT22;701;52.526;13.408;2023-02-03T03:20:02;4.60;41.20
1413;DHT22;701;52.526;13.408;2023-02-03T03:22:35;4.60;41.50
1413;DHT22;701;52.526;13.408;2023-02-03T03:25:08;4.60;41.90
1413;DHT22;701;52.526;13.408;2023-02-03T03:27:38;4.60;41.50
1413;DHT22;701;52.526;13.408;2023-02-03T03:32:36;4.60;42.40
1413;DHT22;701;52.526;13.408;2023-02-03T03:35:03;4.60;42.30
1413;DHT22;701;52.526;13.408;2023-02-03T03:37:34;4.60;42.40
1413;DHT22;701;52.526;13.408;2023-02-03T03:40:23;4.60;42.60
1413;DHT22;701;52.526;13.408;2023-02-03T03:43:16;4.60;42.50
1413;DHT22;701;52.526;13.408;2023-02-03T03:45:59;4.70;42.80
1413;DHT22;701;52.526;13.408;2023-02-03T03:51:08;4.70;43.50
1413;DHT22;701;52.526;13.408;2023-02-03T03:53:38;4.60;43.80
1413;DHT22;701;52.526;13.408;2023-02-03T03:56:06;4.60;44.00
1413;DHT22;701;52.526;13.408;2023-02-03T03:58:36;4.70;44.20
1413;DHT22;701;52.526;13.408;2023-02-03T04:01:05;4.70;44.60
1413;DHT22;701;52.526;13.408;2023-02-03T04:03:42;4.70;44.80
1413;DHT22;701;52.526;13.408;2023-02-03T04:06:08;4.70;45.00
1413;DHT22;701;52.526;13.408;2023-02-03T04:08:34;4.70;45.00
1413;DHT22;701;52.526;13.408;2023-02-03T04:11:00;4.80;44.60
1413;DHT22;701;52.526;13.408;2023-02-03T04:13:26;4.80;44.30
1413;DHT22;701;52.526;13.408;2023-02-03T04:15:51;4.80;44.60
1413;DHT22;701;52.526;13.408;2023-02-03T04:18:17;4.90;44.50
1413;DHT22;701;52.526;13.408;2023-02-03T04:20:43;4.90;44.60
1413;DHT22;701;52.526;13.408;2023-02-03T04:23:09;4.90;45.40
1413;DHT22;701;52.526;13.408;2023-02-03T04:25:35;5.00;45.50
1413;DHT22;701;52.526;13.408;2023-02-03T04:28:01;5.00;45.50
1413;DHT22;701;52.526;13.408;2023-02-03T04:30:26;5.00;45.50
1413;DHT22;701;52.526;13.408;2023-02-03T04:32:52;5.10;45.60
1413;DHT22;701;52.526;13.408;2023-02-03T04:35:18;5.10;45.60
1413;DHT22;701;52.526;13.408;2023-02-03T04:37:45;5.20;46.00
1413;DHT22;701;52.526;13.408;2023-02-03T04:40:11;5.20;45.70
1413;DHT22;701;52.526;13.408;2023-02-03T04:42:38;5.30;45.80
1413;DHT22;701;52.526;13.408;2023-02-03T04:45:05;5.40;45.80
1413;DHT22;701;52.526;13.408;2023-02-03T04:47:31;5.40;45.90
1413;DHT22;701;52.526;13.408;2023-02-03T04:49:57;5.40;45.80
1413;DHT22;701;52.526;13.408;2023-02-03T04:52:23;5.50;45.90
1413;DHT22;701;52.526;13.408;2023-02-03T04:54:50;5.50;45.90
1413;DHT22;701;52.526;13.408;2023-02-03T04:57:16;5.60;46.00
1413;DHT22;701;52.526;13.408;2023-02-03T04:59:41;5.60;46.50
1413;DHT22;701;52.526;13.408;2023-02-03T05:02:07;5.70;46.90
1413;DHT22;701;52.526;13.408;2023-02-03T05:04:33;5.70;46.80
1413;DHT22;701;52.526;13.408;2023-02-03T05:06:59;5.80;47.20
1413;DHT22;701;52.526;13.408;2023-02-03T05:09:26;5.80;47.30
1413;DHT22;701;52.526;13.408;2023-02-03T05:11:53;5.90;47.40
1413;DHT22;701;52.526;13.408;2023-02-03T05:14:19;6.00;47.50
1413;DHT22;701;52.526;13.408;2023-02-03T05:16:45;6.10;47.90
1413;DHT22;701;52.526;13.408;2023-02-03T05:19:11;6.10;48.50
1413;DHT22;701;52.526;13.408;2023-02-03T05:21:36;6.10;49.00
1413;DHT22;701;52.526;13.408;2023-02-03T05:24:02;6.20;49.20
1413;DHT22;701;52.526;13.408;2023-02-03T05:26:31;6.30;49.10
1413;DHT22;701;52.526;13.408;2023-02-03T05:28:57;6.30;49.30
1413;DHT22;701;52.526;13.408;2023-02-03T05:31:23;6.40;50.10
1413;DHT22;701;52.526;13.408;2023-02-03T05:33:49;6.50;49.90
1413;DHT22;701;52.526;13.408;2023-02-03T05:36:14;6.50;50.30
1413;DHT22;701;52.526;13.408;2023-02-03T05:38:40;6.60;50.50
1413;DHT22;701;52.526;13.408;2023-02-03T05:41:09;6.60;51.70
1413;DHT22;701;52.526;13.408;2023-02-03T05:43:53;6.70;51.80
1413;DHT22;701;52.526;13.408;2023-02-03T05:46:19;6.80;52.20
1413;DHT22;701;52.526;13.408;2023-02-03T05:48:45;6.90;52.50
1413;DHT22;701;52.526;13.408;2023-02-03T05:51:10;6.90;52.40
1413;DHT22;701;52.526;13.408;2023-02-03T05:53:36;7.00;53.00
1413;DHT22;701;52.526;13.408;2023-02-03T05:56:02;7.00;52.80
1413;DHT22;701;52.526;13.408;2023-02-03T05:58:28;7.20;53.00
1413;DHT22;701;52.526;13.408;2023-02-03T06:00:53;7.20;52.70
1413;DHT22;701;52.526;13.408;2023-02-03T06:03:19;7.30;52.60
1413;DHT22;701;52.526;13.408;2023-02-03T06:05:45;7.40;52.70
1413;DHT22;701;52.526;13.408;2023-02-03T06:08:11;7.40;52.90
1413;DHT22;701;52.526;13.408;2023-02-03T06:10:37;7.50;53.70
1413;DHT22;701;52.526;13.408;2023-02-03T06:13:10;7.50;53.10
1413;DHT22;701;52.526;13.408;2023-02-03T06:15:36;7.60;53.20
1413;DHT22;701;52.526;13.408;2023-02-03T06:18:02;7.60;53.20
1413;DHT22;701;52.526;13.408;2023-02-03T06:20:28;7.70;52.90
1413;DHT22;701;52.526;13.408;2023-02-03T06:22:54;7.80;53.30
1413;DHT22;701;52.526;13.408;2023-02-03T06:25:20;7.80;53.40
1413;DHT22;701;52.526;13.408;2023-02-03T06:27:46;7.90;53.60
1413;DHT22;701;52.526;13.408;2023-02-03T06:30:12;7.90;53.40
1413;DHT22;701;52.526;13.408;2023-02-03T06:32:37;7.90;53.20
1413;DHT22;701;52.526;13.408;2023-02-03T06:35:03;8.00;53.10
1413;DHT22;701;52.526;13.408;2023-02-03T06:37:29;8.00;53.20
1413;DHT22;701;52.526;13.408;2023-02-03T06:39:55;8.00;53.40
1413;DHT22;701;52.526;13.408;2023-02-03T06:42:21;8.10;53.30
1413;DHT22;701;52.526;13.408;2023-02-03T06:44:46;8.10;53.30
1413;DHT22;701;52.526;13.408;2023-02-03T06:47:12;8.10;53.10
1413;DHT22;701;52.526;13.408;2023-02-03T06:49:38;8.20;52.80
1413;DHT22;701;52.526;13.408;2023-02-03T06:52:04;8.20;52.50
1413;DHT22;701;52.526;13.408;2023-02-03T06:54:29;8.20;52.30
1413;DHT22;701;52.526;13.408;2023-02-03T06:56:55;8.30;52.30
1413;DHT22;701;52.526;13.408;2023-02-03T06:59:21;8.30;52.30
1413;DHT22;701;52.526;13.408;2023-02-03T07:01:46;8.30;52.40
1413;DHT22;701;52.526;13.408;2023-02-03T07:04:12;8.30;52.40
1413;DHT22;701;52.526;13.408;2023-02-03T07:06:38;8.40;52.50
1413;DHT22;701;52.526;13.408;2023-02-03T07:09:04;8.40;52.40
1413;DHT22;701;52.526;13.408;2023-02-03T07:11:31;8.40;52.30
1413;DHT22;701;52.526;13.408;2023-02-03T07:13:57;8.40;52.10
1413;DHT22;701;52.526;13.408;2023-02-03T07:16:23;8.40;51.80
1413;DHT22;701;52.526;13.408;2023-02-03T07:18:49;8.50;52.00
1413;DHT22;701;52.526;13.408;2023-02-03T07:21:15;8.50;52.00
1413;DHT22;701;52.526;13.408;2023-02-03T07:23:41;8.50;52.30
1413;DHT22;701;52.526;13.408;2023-02-03T07:26:09;8.50;52.50
1413;DHT22;701;52.526;13.408;2023-02-03T07:28:35;8.50;52.50
1413;DHT22;701;52.526;13.408;2023-02-03T07:31:01;8.60;52.60
1413;DHT22;701;52.526;13.408;2023-02-03T07:33:30;8.60;52.60
1413;DHT22;701;52.526;13.408;2023-02-03T07:35:57;8.50;52.50
1413;DHT22;701;52.526;13.408;2023-02-03T07:38:24;8.50;52.70
1413;DHT22;701;52.526;13.408;2023-02-03T07:40:50;8.60;53.00
1413;DHT22;701;52.526;13.408;2023-02-03T07:43:16;8.60;53.00
1413;DHT22;701;52.526;13.408;2023-02-03T07:45:42;8.60;52.90
1413;DHT22;701;52.526;13.408;2023-02-03T07:48:08;8.60;52.90
1413;DHT22;701;52.526;13.408;2023-02-03T07:50:33;8.60;52.60
1413;DHT22;701;52.526;13.408;2023-02-03T07:53:00;8.70;52.20
1413;DHT22;701;52.526;13.408;2023-02-03T07:55:26;8.70;52.20
1413;DHT22;701;52.526;13.408;2023-02-03T07:57:53;8.70;52.20
1413;DHT22;701;52.526;13.408;2023-02-03T08:00:19;8.70;51.90
1413;DHT22;701;52.526;13.408;2023-02-03T08:02:45;8.70;51.70
1413;DHT22;701;52.526;13.408;2023-02-03T08:05:12;8.70;51.60
1413;DHT22;701;52.526;13.408;2023-02-03T08:07:38;8.80;51.60
1413;DHT22;701;52.526;13.408;2023-02-03T08:10:05;8.80;51.70
1413;DHT22;701;52.526;13.408;2023-02-03T08:12:33;8.80;51.70
1413;DHT22;701;52.526;13.408;2023-02-03T08:14:59;8.80;51.50
1413;DHT22;701;52.526;13.408;2023-02-03T08:17:25;8.80;51.10
1413;DHT22;701;52.526;13.408;2023-02-03T08:19:51;8.90;51.30
1413;DHT22;701;52.526;13.408;2023-02-03T08:22:17;8.90;51.30
1413;DHT22;701;52.526;13.408;2023-02-03T08:24:44;8.90;51.40
1413;DHT22;701;52.526;13.408;2023-02-03T08:27:16;8.90;51.70
1413;DHT22;701;52.526;13.408;2023-02-03T08:29:43;8.90;52.00
1413;DHT22;701;52.526;13.408;2023-02-03T08:32:09;8.90;52.30
1413;DHT22;701;52.526;13.408;2023-02-03T08:34:36;8.90;52.30
1413;DHT22;701;52.526;13.408;2023-02-03T08:37:02;8.90;52.20
1413;DHT22;701;52.526;13.408;2023-02-03T08:39:28;8.90;52.30
1413;DHT22;701;52.526;13.408;2023-02-03T08:41:54;8.90;51.90
1413;DHT22;701;52.526;13.408;2023-02-03T08:44:19;8.90;51.60
1413;DHT22;701;52.526;13.408;2023-02-03T08:46:50;8.90;51.80
1413;DHT22;701;52.526;13.408;2023-02-03T08:49:16;8.90;52.10
1413;DHT22;701;52.526;13.408;2023-02-03T08:51:42;8.90;52.10
1413;DHT22;701;52.526;13.408;2023-02-03T08:54:08;8.90;52.00
1413;DHT22;701;52.526;13.408;2023-02-03T08:56:34;9.00;52.30
1413;DHT22;701;52.526;13.408;2023-02-03T08:59:00;9.00;52.70
1413;DHT22;701;52.526;13.408;2023-02-03T09:01:26;9.00;52.70
1413;DHT22;701;52.526;13.408;2023-02-03T09:03:52;9.00;52.90
1413;DHT22;701;52.526;13.408;2023-02-03T09:06:17;9.10;53.00
1413;DHT22;701;52.526;13.408;2023-02-03T09:08:44;9.10;53.00
1413;DHT22;701;52.526;13.408;2023-02-03T09:11:12;9.10;52.90
1413;DHT22;701;52.526;13.408;2023-02-03T09:13:39;9.10;52.40
1413;DHT22;701;52.526;13.408;2023-02-03T09:16:08;9.10;52.30
1413;DHT22;701;52.526;13.408;2023-02-03T09:18:34;9.10;51.70
1413;DHT22;701;52.526;13.408;2023-02-03T09:21:05;9.10;52.00
1413;DHT22;701;52.526;13.408;2023-02-03T09:23:31;9.10;51.80
1413;DHT22;701;52.526;13.408;2023-02-03T09:26:04;9.10;51.90
1413;DHT22;701;52.526;13.408;2023-02-03T09:28:31;9.10;52.00
1413;DHT22;701;52.526;13.408;2023-02-03T09:31:01;9.10;51.90
1413;DHT22;701;52.526;13.408;2023-02-03T09:33:27;9.10;52.10
1413;DHT22;701;52.526;13.408;2023-02-03T09:35:54;9.10;53.00
1413;DHT22;701;52.526;13.408;2023-02-03T09:38:20;9.10;53.00
1413;DHT22;701;52.526;13.408;2023-02-03T09:40:54;9.20;52.90
1413;DHT22;701;52.526;13.408;2023-02-03T09:43:47;9.10;53.00
1413;DHT22;701;52.526;13.408;2023-02-03T09:46:22;9.20;53.20
1413;DHT22;701;52.526;13.408;2023-02-03T09:48:52;9.20;53.10
1413;DHT22;701;52.526;13.408;2023-02-03T09:51:22;9.20;53.10
1413;DHT22;701;52.526;13.408;2023-02-03T09:54:04;9.20;53.10
1413;DHT22;701;52.526;13.408;2023-02-03T09:56:33;9.20;53.40
1413;DHT22;701;52.526;13.408;2023-02-03T09:58:59;9.20;53.10
1413;DHT22;701;52.526;13.408;2023-02-03T10:01:34;9.20;53.10
1413;DHT22;701;52.526;13.408;2023-02-03T10:04:23;9.20;53.00
1413;DHT22;701;52.526;13.408;2023-02-03T10:09:48;9.30;52.20
1413;DHT22;701;52.526;13.408;2023-02-03T10:12:38;9.30;52.10
1413;DHT22;701;52.526;13.408;2023-02-03T10:17:54;9.40;52.00
1413;DHT22;701;52.526;13.408;2023-02-03T10:20:25;9.40;51.40
1413;DHT22;701;52.526;13.408;2023-02-03T10:23:01;9.40;51.30
1413;DHT22;701;52.526;13.408;2023-02-03T10:25:39;9.50;50.50
1413;DHT22;701;52.526;13.408;2023-02-03T10:28:14;9.50;49.30
1413;DHT22;701;52.526;13.408;2023-02-03T10:30:48;9.60;49.20
1413;DHT22;701;52.526;13.408;2023-02-03T10:33:17;9.60;49.20
1413;DHT22;701;52.526;13.408;2023-02-03T10:35:50;9.70;48.60
1413;DHT22;701;52.526;13.408;2023-02-03T10:41:06;9.70;47.60
1413;DHT22;701;52.526;13.408;2023-02-03T10:43:32;9.70;47.80
1413;DHT22;701;52.526;13.408;2023-02-03T10:46:38;9.60;49.30
1413;DHT22;701;52.526;13.408;2023-02-03T10:49:03;9.60;49.80
1413;DHT22;701;52.526;13.408;2023-02-03T10:51:47;9.50;48.60
1413;DHT22;701;52.526;13.408;2023-02-03T10:54:32;9.30;45.30
1413;DHT22;701;52.526;13.408;2023-02-03T10:57:10;9.20;44.40
1413;DHT22;701;52.526;13.408;2023-02-03T10:59:45;9.00;42.20
1413;DHT22;701;52.526;13.408;2023-02-03T11:02:28;8.90;40.90
1413;DHT22;701;52.526;13.408;2023-02-03T11:07:43;8.90;39.30
1413;DHT22;701;52.526;13.408;2023-02-03T11:15:35;9.00;36.40
1413;DHT22;701;52.526;13.408;2023-02-03T11:18:01;9.00;35.40
1413;DHT22;701;52.526;13.408;2023-02-03T11:20:27;9.10;34.30
1413;DHT22;701;52.526;13.408;2023-02-03T11:22:54;9.10;33.50
1413;DHT22;701;52.526;13.408;2023-02-03T11:25:27;9.20;33.60
1413;DHT22;701;52.526;13.408;2023-02-03T11:28:03;9.30;33.00
1413;DHT22;701;52.526;13.408;2023-02-03T11:30:31;9.40;32.10
1413;DHT22;701;52.526;13.408;2023-02-03T11:32:59;9.40;31.60
1413;DHT22;701;52.526;13.408;2023-02-03T11:35:28;9.40;31.50
1413;DHT22;701;52.526;13.408;2023-02-03T11:38:00;9.50;31.70
1413;DHT22;701;52.526;13.408;2023-02-03T11:40:33;9.40;30.70
1413;DHT22;701;52.526;13.408;2023-02-03T11:43:21;9.40;30.70
1413;DHT22;701;52.526;13.408;2023-02-03T11:45:50;9.40;30.90
1413;DHT22;701;52.526;13.408;2023-02-03T11:51:14;9.60;29.80
1413;DHT22;701;52.526;13.408;2023-02-03T12:13:18;9.80;27.10
1413;DHT22;701;52.526;13.408;2023-02-03T12:24:13;10.10;25.50
1413;DHT22;701;52.526;13.408;2023-02-03T12:29:21;10.20;25.10
1413;DHT22;701;52.526;13.408;2023-02-03T12:34:44;10.30;24.90
1413;DHT22;701;52.526;13.408;2023-02-03T12:37:21;10.40;24.30
1413;DHT22;701;52.526;13.408;2023-02-03T12:39:52;10.60;23.10
1413;DHT22;701;52.526;13.408;2023-02-03T12:42:24;10.70;21.90
1413;DHT22;701;52.526;13.408;2023-02-03T12:47:55;10.90;21.30
1413;DHT22;701;52.526;13.408;2023-02-03T12:50:43;11.10;20.50
1413;DHT22;701;52.526;13.408;2023-02-03T12:53:35;11.20;19.10
1413;DHT22;701;52.526;13.408;2023-02-03T12:58:48;10.90;21.10
1413;DHT22;701;52.526;13.408;2023-02-03T13:06:43;9.30;26.60
1413;DHT22;701;52.526;13.408;2023-02-03T13:12:08;8.40;29.80
1413;DHT22;701;52.526;13.408;2023-02-03T13:14:37;8.10;31.80
1413;DHT22;701;52.526;13.408;2023-02-03T13:17:16;7.90;33.50
1413;DHT22;701;52.526;13.408;2023-02-03T13:19:49;7.80;34.50
1413;DHT22;701;52.526;13.408;2023-02-03T13:22:17;7.70;35.60
1413;DHT22;701;52.526;13.408;2023-02-03T13:45:08;7.30;34.90
1413;DHT22;701;52.526;13.408;2023-02-03T13:47:34;7.40;34.40
1413;DHT22;701;52.526;13.408;2023-02-03T13:50:07;7.40;33.70
1413;DHT22;701;52.526;13.408;2023-02-03T13:52:46;7.40;32.80
1413;DHT22;701;52.526;13.408;2023-02-03T13:57:51;7.30;32.20
1413;DHT22;701;52.526;13.408;2023-02-03T14:05:47;7.40;32.80
1413;DHT22;701;52.526;13.408;2023-02-03T14:16:33;7.60;33.00
1413;DHT22;701;52.526;13.408;2023-02-03T14:19:00;7.70;32.70
1413;DHT22;701;52.526;13.408;2023-02-03T14:21:28;7.80;32.00
1413;DHT22;701;52.526;13.408;2023-02-03T14:24:09;7.90;31.60
1413;DHT22;701;52.526;13.408;2023-02-03T14:29:07;8.00;30.50
1413;DHT22;701;52.526;13.408;2023-02-03T14:31:52;8.00;30.50
1413;DHT22;701;52.526;13.408;2023-02-03T14:37:21;8.20;30.00
1413;DHT22;701;52.526;13.408;2023-02-03T14:56:17;8.70;27.50
1413;DHT22;701;52.526;13.408;2023-02-03T14:58:48;8.70;27.00
1413;DHT22;701;52.526;13.408;2023-02-03T15:02:06;8.70;26.80
1413;DHT22;701;52.526;13.408;2023-02-03T15:06:45;8.70;26.70
1413;DHT22;701;52.526;13.408;2023-02-03T15:12:01;8.70;25.60
1413;DHT22;701;52.526;13.408;2023-02-03T15:14:29;8.70;25.40
1413;DHT22;701;52.526;13.408;2023-02-03T15:17:12;8.70;25.40
1413;DHT22;701;52.526;13.408;2023-02-03T15:19:40;8.70;25.10
1413;DHT22;701;52.526;13.408;2023-02-03T15:22:24;8.70;25.60
1413;DHT22;701;52.526;13.408;2023-02-03T15:24:51;8.60;25.30
1413;DHT22;701;52.526;13.408;2023-02-03T15:27:23;8.70;25.40
1413;DHT22;701;52.526;13.408;2023-02-03T15:29:49;8.70;25.40
1413;DHT22;701;52.526;13.408;2023-02-03T15:32:33;8.70;25.60
1413;DHT22;701;52.526;13.408;2023-02-03T15:35:02;8.70;25.60
1413;DHT22;701;52.526;13.408;2023-02-03T15:37:43;8.70;26.00
1413;DHT22;701;52.526;13.408;2023-02-03T15:40:20;8.60;25.80
1413;DHT22;701;52.526;13.408;2023-02-03T15:42:57;8.70;26.00
1413;DHT22;701;52.526;13.408;2023-02-03T15:45:28;8.60;26.30
1413;DHT22;701;52.526;13.408;2023-02-03T15:48:14;8.60;26.70
1413;DHT22;701;52.526;13.408;2023-02-03T15:50:47;8.60;27.00
1413;DHT22;701;52.526;13.408;2023-02-03T15:53:20;8.60;27.30
1413;DHT22;701;52.526;13.408;2023-02-03T15:55:49;8.60;27.40
1413;DHT22;701;52.526;13.408;2023-02-03T15:58:19;8.50;27.70
1413;DHT22;701;52.526;13.408;2023-02-03T16:00:51;8.50;28.00
1413;DHT22;701;52.526;13.408;2023-02-03T16:03:21;8.50;29.00
1413;DHT22;701;52.526;13.408;2023-02-03T16:05:52;8.40;28.80
1413;DHT22;701;52.526;13.408;2023-02-03T16:11:00;8.40;29.30
1413;DHT22;701;52.526;13.408;2023-02-03T16:13:27;8.30;29.30
1413;DHT22;701;52.526;13.408;2023-02-03T16:16:03;8.30;29.20
1413;DHT22;701;52.526;13.408;2023-02-03T16:18:32;8.30;29.40
1413;DHT22;701;52.526;13.408;2023-02-03T16:21:00;8.30;29.20
1413;DHT22;701;52.526;13.408;2023-02-03T16:23:26;8.30;29.20
1413;DHT22;701;52.526;13.408;2023-02-03T16:26:14;8.20;29.30
1413;DHT22;701;52.526;13.408;2023-02-03T16:28:42;8.20;29.60
1413;DHT22;701;52.526;13.408;2023-02-03T16:31:26;8.20;29.50
1413;DHT22;701;52.526;13.408;2023-02-03T16:34:16;8.20;29.70
1413;DHT22;701;52.526;13.408;2023-02-03T16:37:10;8.20;29.80
1413;DHT22;701;52.526;13.408;2023-02-03T16:39:54;8.20;29.90
1413;DHT22;701;52.526;13.408;2023-02-03T16:42:39;8.20;30.00
1413;DHT22;701;52.526;13.408;2023-02-03T16:45:24;8.20;30.00
1413;DHT22;701;52.526;13.408;2023-02-03T16:48:12;8.20;30.50
1413;DHT22;701;52.526;13.408;2023-02-03T16:51:00;8.20;30.70
1413;DHT22;701;52.526;13.408;2023-02-03T16:53:29;8.20;30.70
1413;DHT22;701;52.526;13.408;2023-02-03T16:55:57;8.10;30.60
1413;DHT22;701;52.526;13.408;2023-02-03T16:58:24;8.10;31.10
1413;DHT22;701;52.526;13.408;2023-02-03T17:00:51;8.10;31.10
1413;DHT22;701;52.526;13.408;2023-02-03T17:03:20;8.10;31.20
1413;DHT22;701;52.526;13.408;2023-02-03T17:05:48;8.00;31.30
1413;DHT22;701;52.526;13.408;2023-02-03T17:08:16;8.10;31.40
1413;DHT22;701;52.526;13.408;2023-02-03T17:10:43;8.10;31.20
1413;DHT22;701;52.526;13.408;2023-02-03T17:13:10;8.10;30.60
1413;DHT22;701;52.526;13.408;2023-02-03T17:15:40;8.10;30.60
1413;DHT22;701;52.526;13.408;2023-02-03T17:18:07;8.00;30.50
1413;DHT22;701;52.526;13.408;2023-02-03T17:20:33;8.00;30.20
1413;DHT22;701;52.526;13.408;2023-02-03T17:22:59;8.00;29.60
1413;DHT22;701;52.526;13.408;2023-02-03T17:25:25;8.00;29.60
1413;DHT22;701;52.526;13.408;2023-02-03T17:27:50;8.10;29.30
1413;DHT22;701;52.526;13.408;2023-02-03T17:30:16;8.10;29.20
1413;DHT22;701;52.526;13.408;2023-02-03T17:32:42;8.10;28.60
1413;DHT22;701;52.526;13.408;2023-02-03T17:35:08;8.10;28.70
1413;DHT22;701;52.526;13.408;2023-02-03T17:37:34;8.10;28.60
1413;DHT22;701;52.526;13.408;2023-02-03T17:40:01;8.20;28.50
1413;DHT22;701;52.526;13.408;2023-02-03T17:42:27;8.20;28.40
1413;DHT22;701;52.526;13.408;2023-02-03T17:44:52;8.20;27.90
1413;DHT22;701;52.526;13.408;2023-02-03T17:47:18;8.20;28.10
1413;DHT22;701;52.526;13.408;2023-02-03T17:49:44;8.30;28.20
1413;DHT22;701;52.526;13.408;2023-02-03T17:52:11;8.30;28.10
1413;DHT22;701;52.526;13.408;2023-02-03T17:54:37;8.30;28.00
1413;DHT22;701;52.526;13.408;2023-02-03T17:57:03;8.30;27.90
1413;DHT22;701;52.526;13.408;2023-02-03T17:59:29;8.40;28.00
1413;DHT22;701;52.526;13.408;2023-02-03T18:01:55;8.30;27.80
1413;DHT22;701;52.526;13.408;2023-02-03T18:04:20;8.30;28.00
1413;DHT22;701;52.526;13.408;2023-02-03T18:06:46;8.30;27.90
1413;DHT22;701;52.526;13.408;2023-02-03T18:09:12;8.30;27.90
1413;DHT22;701;52.526;13.408;2023-02-03T18:11:41;8.30;28.10
1413;DHT22;701;52.526;13.408;2023-02-03T18:14:09;8.30;28.20
1413;DHT22;701;52.526;13.408;2023-02-03T18:16:35;8.30;28.80
1413;DHT22;701;52.526;13.408;2023-02-03T18:19:04;8.30;28.20
1413;DHT22;701;52.526;13.408;2023-02-03T18:21:31;8.30;28.40
1413;DHT22;701;52.526;13.408;2023-02-03T18:23:58;8.30;28.30
1413;DHT22;701;52.526;13.408;2023-02-03T18:26:31;8.30;28.30
1413;DHT22;701;52.526;13.408;2023-02-03T18:28:59;8.30;28.20
1413;DHT22;701;52.526;13.408;2023-02-03T18:31:25;8.30;28.30
1413;DHT22;701;52.526;13.408;2023-02-03T18:33:51;8.30;28.30
1413;DHT22;701;52.526;13.408;2023-02-03T18:36:18;8.30;28.30
1413;DHT22;701;52.526;13.408;2023-02-03T18:38:45;8.30;28.30
1413;DHT22;701;52.526;13.408;2023-02-03T18:41:15;8.30;28.10
1413;DHT22;701;52.526;13.408;2023-02-03T18:43:41;8.30;27.90
1413;DHT22;701;52.526;13.408;2023-02-03T18:46:08;8.30;27.90
1413;DHT22;701;52.526;13.408;2023-02-03T18:48:35;8.30;27.80
1413;DHT22;701;52.526;13.408;2023-02-03T18:51:02;8.30;27.90
1413;DHT22;701;52.526;13.408;2023-02-03T18:53:28;8.30;28.00
1413;DHT22;701;52.526;13.408;2023-02-03T18:55:54;8.30;28.10
1413;DHT22;701;52.526;13.408;2023-02-03T18:58:20;8.30;28.00
1413;DHT22;701;52.526;13.408;2023-02-03T19:00:46;8.30;28.00
1413;DHT22;701;52.526;13.408;2023-02-03T19:03:11;8.40;28.00
1413;DHT22;701;52.526;13.408;2023-02-03T19:05:40;8.40;28.00
1413;DHT22;701;52.526;13.408;2023-02-03T19:08:06;8.40;28.00
1413;DHT22;701;52.526;13.408;2023-02-03T19:10:33;8.40;28.00
1413;DHT22;701;52.526;13.408;2023-02-03T19:13:00;8.40;28.00
1413;DHT22;701;52.526;13.408;2023-02-03T19:15:26;8.40;28.00